Col Jabara, KS

8:38 PM CST on December 17, 2014 (GMT -0600)
Col Jabara | Change Station
CLOSE
Current Station
Airport
Location: Wichita Jabara,
Elevation: 1421 ft
Nearby Weather Stations
Active Advisory: Winter Weather Advisory Active Notice: Local Storm Report

Elev 1421 ft 37.75 °N, 97.22 °W | Updated 15 minutes ago

Light Snow
Light Snow Mist
29 °F
Feels Like 21 °F
N
8
Wind Variable Wind from ENE

Today
High -- | Low -- °F
--% Chance of Precip.
Yesterday
High -- | Low -- °F
Precip. -- in
7:38 AM 5:11 PM
Waning Crescent, 18% visible
Pressure 30.17 in
Visibility 3.0 miles
Clouds Mostly Cloudy 400 ft
Mostly Cloudy 2300 ft
Overcast 2800 ft
Windchill 21 °F
Dew Point 28 °F
Humidity 96%
Rainfall 0.21 in
Snow Depth Not available.
UV 0 out of 12
Pollen .10 out of 12
Air Quality Not available.
Flu Activity Not available.
SPECI KAAO 180223Z AUTO 07007KT 3SM -SN BR BKN004 BKN023 OVC028 M02/M02 A3017 RMK AO2 P0000 T10171022

More Conditions Fewer Conditions

Pressure 30.17 in
Visibility 3.0 miles
Clouds Mostly Cloudy 400 ft
Mostly Cloudy 2300 ft
Overcast 2800 ft
Windchill 21 °F
Dew Point 28 °F
Humidity 96%
Rainfall 0.21 in
Snow Depth Not available.
UV 0 out of 12
Pollen .10 out of 12
Air Quality Not available.
Flu Activity Not available.
SPECI KAAO 180223Z AUTO 07007KT 3SM -SN BR BKN004 BKN023 OVC028 M02/M02 A3017 RMK AO2 P0000 T10171022

More Conditions Fewer Conditions

10-Day Weather Forecast

Almanac

Astronomy

Dec. 17, 2014 Rise Set
Actual Time
Civil Twilight
Nautical Twilight
Astronomical Twilight
Moon
Length of Visible Light
Length of Day
Tomorrow will be .
, % of the Moon is Illuminated

Today's Extremes

State Highs State Lows

Community

WunderPhotos

Upload Photos

1,778,862 photos uploaded!

WunderBlogs® & News

Nearby

Air Quality

  Air Quality AQ Index Pollutant
Not available.

Snow Depth

Station Depth Elevation

Earthquake Activity

City Distance Mag. Time & Date
Minimum magnitude displayed is 2.5.

Coastal Water Temperatures

Place Temperature

Nearby Weather Stations